sensor_id;sensor_type;location;lat;lon;timestamp;temperature;humidity
21489;DHT22;10906;45.194;5.684;2023-07-31T05:01:06;17.80;94.20
21489;DHT22;10906;45.194;5.684;2023-07-31T05:03:50;17.80;94.50
21489;DHT22;10906;45.194;5.684;2023-07-31T05:06:35;17.70;95.20
21489;DHT22;10906;45.194;5.684;2023-07-31T05:09:19;17.70;94.90
21489;DHT22;10906;45.194;5.684;2023-07-31T05:12:04;17.80;95.20
21489;DHT22;10906;45.194;5.684;2023-07-31T05:14:49;17.80;95.40
21489;DHT22;10906;45.194;5.684;2023-07-31T05:17:33;17.70;95.40
21489;DHT22;10906;45.194;5.684;2023-07-31T05:20:17;17.50;95.60
21489;DHT22;10906;45.194;5.684;2023-07-31T05:23:01;17.50;95.60
21489;DHT22;10906;45.194;5.684;2023-07-31T05:25:46;17.50;95.80
21489;DHT22;10906;45.194;5.684;2023-07-31T05:28:30;17.40;96.20
21489;DHT22;10906;45.194;5.684;2023-07-31T05:31:14;17.40;96.20
21489;DHT22;10906;45.194;5.684;2023-07-31T05:33:58;17.40;96.20
21489;DHT22;10906;45.194;5.684;2023-07-31T05:36:42;17.50;96.60
21489;DHT22;10906;45.194;5.684;2023-07-31T05:39:26;17.60;96.30
21489;DHT22;10906;45.194;5.684;2023-07-31T05:42:11;17.60;96.70
21489;DHT22;10906;45.194;5.684;2023-07-31T05:44:55;17.50;96.40
21489;DHT22;10906;45.194;5.684;2023-07-31T05:47:39;17.60;96.50
21489;DHT22;10906;45.194;5.684;2023-07-31T05:50:23;17.50;96.70
21489;DHT22;10906;45.194;5.684;2023-07-31T05:53:08;17.60;96.30
21489;DHT22;10906;45.194;5.684;2023-07-31T05:55:52;17.60;96.80
21489;DHT22;10906;45.194;5.684;2023-07-31T05:58:36;17.50;96.80
21489;DHT22;10906;45.194;5.684;2023-07-31T06:01:20;17.60;97.30
21489;DHT22;10906;45.194;5.684;2023-07-31T06:04:05;17.60;97.30
21489;DHT22;10906;45.194;5.684;2023-07-31T06:06:49;17.70;97.70
21489;DHT22;10906;45.194;5.684;2023-07-31T06:09:34;17.70;97.50
21489;DHT22;10906;45.194;5.684;2023-07-31T06:12:18;17.70;97.50
21489;DHT22;10906;45.194;5.684;2023-07-31T06:15:03;17.80;97.70
21489;DHT22;10906;45.194;5.684;2023-07-31T06:17:47;17.80;97.60
21489;DHT22;10906;45.194;5.684;2023-07-31T06:20:31;17.80;97.50
21489;DHT22;10906;45.194;5.684;2023-07-31T06:23:16;17.90;97.60
21489;DHT22;10906;45.194;5.684;2023-07-31T06:26:02;17.90;97.40
21489;DHT22;10906;45.194;5.684;2023-07-31T06:28:46;18.10;97.30
21489;DHT22;10906;45.194;5.684;2023-07-31T06:31:30;18.10;97.40
21489;DHT22;10906;45.194;5.684;2023-07-31T06:34:14;18.10;97.10
21489;DHT22;10906;45.194;5.684;2023-07-31T06:36:59;18.20;97.40
21489;DHT22;10906;45.194;5.684;2023-07-31T06:39:43;18.20;97.50
21489;DHT22;10906;45.194;5.684;2023-07-31T06:42:27;18.30;97.40
21489;DHT22;10906;45.194;5.684;2023-07-31T06:45:11;18.40;97.30
21489;DHT22;10906;45.194;5.684;2023-07-31T06:47:56;18.40;97.50
21489;DHT22;10906;45.194;5.684;2023-07-31T06:50:40;18.60;96.80
21489;DHT22;10906;45.194;5.684;2023-07-31T06:53:24;18.70;96.50
21489;DHT22;10906;45.194;5.684;2023-07-31T06:56:09;18.70;96.10
21489;DHT22;10906;45.194;5.684;2023-07-31T06:58:53;18.80;96.20
21489;DHT22;10906;45.194;5.684;2023-07-31T07:01:37;18.90;96.00
21489;DHT22;10906;45.194;5.684;2023-07-31T07:04:21;19.00;96.20
21489;DHT22;10906;45.194;5.684;2023-07-31T07:07:05;18.90;95.70
21489;DHT22;10906;45.194;5.684;2023-07-31T07:09:50;18.90;95.70
21489;DHT22;10906;45.194;5.684;2023-07-31T07:12:34;19.10;95.80
21489;DHT22;10906;45.194;5.684;2023-07-31T07:15:18;19.50;95.00
21489;DHT22;10906;45.194;5.684;2023-07-31T07:18:03;19.50;95.30
21489;DHT22;10906;45.194;5.684;2023-07-31T07:20:51;19.60;95.00
21489;DHT22;10906;45.194;5.684;2023-07-31T07:23:36;19.60;95.30
21489;DHT22;10906;45.194;5.684;2023-07-31T07:26:20;19.80;94.90
21489;DHT22;10906;45.194;5.684;2023-07-31T07:29:04;19.80;94.80
21489;DHT22;10906;45.194;5.684;2023-07-31T07:31:51;19.80;94.80
21489;DHT22;10906;45.194;5.684;2023-07-31T07:34:35;19.90;94.40
21489;DHT22;10906;45.194;5.684;2023-07-31T07:37:20;20.10;95.10
21489;DHT22;10906;45.194;5.684;2023-07-31T07:40:04;20.30;93.90
21489;DHT22;10906;45.194;5.684;2023-07-31T07:42:49;20.30;94.00
21489;DHT22;10906;45.194;5.684;2023-07-31T07:45:34;20.50;94.00
21489;DHT22;10906;45.194;5.684;2023-07-31T07:48:18;20.60;93.90
21489;DHT22;10906;45.194;5.684;2023-07-31T07:51:03;20.70;93.90
21489;DHT22;10906;45.194;5.684;2023-07-31T07:53:47;20.90;93.40
21489;DHT22;10906;45.194;5.684;2023-07-31T07:56:32;21.00;93.90
21489;DHT22;10906;45.194;5.684;2023-07-31T07:59:16;21.20;92.70
21489;DHT22;10906;45.194;5.684;2023-07-31T08:02:01;21.30;92.60
21489;DHT22;10906;45.194;5.684;2023-07-31T08:04:45;21.30;92.40
21489;DHT22;10906;45.194;5.684;2023-07-31T08:07:29;21.50;91.70
21489;DHT22;10906;45.194;5.684;2023-07-31T08:10:13;21.90;91.00
21489;DHT22;10906;45.194;5.684;2023-07-31T08:12:57;21.80;90.70
21489;DHT22;10906;45.194;5.684;2023-07-31T08:15:41;21.90;90.80
21489;DHT22;10906;45.194;5.684;2023-07-31T08:18:27;21.90;91.40
21489;DHT22;10906;45.194;5.684;2023-07-31T08:21:11;21.90;90.90
21489;DHT22;10906;45.194;5.684;2023-07-31T08:23:55;22.10;90.40
21489;DHT22;10906;45.194;5.684;2023-07-31T08:26:39;22.10;90.40
21489;DHT22;10906;45.194;5.684;2023-07-31T08:29:25;22.10;90.10
21489;DHT22;10906;45.194;5.684;2023-07-31T08:32:09;22.20;91.20
21489;DHT22;10906;45.194;5.684;2023-07-31T08:34:53;22.30;89.70
21489;DHT22;10906;45.194;5.684;2023-07-31T08:37:37;22.30;89.70
21489;DHT22;10906;45.194;5.684;2023-07-31T08:40:22;22.70;88.40
21489;DHT22;10906;45.194;5.684;2023-07-31T08:43:07;22.60;87.70
21489;DHT22;10906;45.194;5.684;2023-07-31T08:45:51;22.80;86.70
21489;DHT22;10906;45.194;5.684;2023-07-31T08:48:36;22.80;85.60
21489;DHT22;10906;45.194;5.684;2023-07-31T08:51:21;22.80;87.00
21489;DHT22;10906;45.194;5.684;2023-07-31T08:54:06;22.90;86.90
21489;DHT22;10906;45.194;5.684;2023-07-31T08:56:50;23.10;82.10
21489;DHT22;10906;45.194;5.684;2023-07-31T08:59:37;23.10;83.80
21489;DHT22;10906;45.194;5.684;2023-07-31T09:02:21;23.00;83.50
21489;DHT22;10906;45.194;5.684;2023-07-31T09:05:07;23.00;84.80
21489;DHT22;10906;45.194;5.684;2023-07-31T09:07:51;23.00;84.10
21489;DHT22;10906;45.194;5.684;2023-07-31T09:10:39;23.30;83.30
21489;DHT22;10906;45.194;5.684;2023-07-31T09:13:24;23.20;81.30
21489;DHT22;10906;45.194;5.684;2023-07-31T09:16:08;23.40;81.20
21489;DHT22;10906;45.194;5.684;2023-07-31T09:18:54;23.40;83.00
21489;DHT22;10906;45.194;5.684;2023-07-31T09:21:49;23.90;83.90
21489;DHT22;10906;45.194;5.684;2023-07-31T09:24:34;24.00;79.70
21489;DHT22;10906;45.194;5.684;2023-07-31T09:27:18;24.00;84.00
21489;DHT22;10906;45.194;5.684;2023-07-31T09:30:02;24.00;78.50
21489;DHT22;10906;45.194;5.684;2023-07-31T09:32:47;24.00;78.80
21489;DHT22;10906;45.194;5.684;2023-07-31T09:35:32;24.00;81.40
21489;DHT22;10906;45.194;5.684;2023-07-31T09:38:16;24.10;80.60
21489;DHT22;10906;45.194;5.684;2023-07-31T09:41:00;24.20;77.20
21489;DHT22;10906;45.194;5.684;2023-07-31T09:43:52;24.00;76.50
21489;DHT22;10906;45.194;5.684;2023-07-31T09:46:37;24.10;78.00
21489;DHT22;10906;45.194;5.684;2023-07-31T09:49:21;24.20;80.10
21489;DHT22;10906;45.194;5.684;2023-07-31T09:52:11;24.60;79.30
21489;DHT22;10906;45.194;5.684;2023-07-31T09:54:55;24.90;76.50
21489;DHT22;10906;45.194;5.684;2023-07-31T09:57:40;25.10;78.50
21489;DHT22;10906;45.194;5.684;2023-07-31T10:00:26;25.30;79.60
21489;DHT22;10906;45.194;5.684;2023-07-31T10:03:12;25.40;74.30
21489;DHT22;10906;45.194;5.684;2023-07-31T10:05:57;25.40;76.70
21489;DHT22;10906;45.194;5.684;2023-07-31T10:08:43;25.40;75.80
21489;DHT22;10906;45.194;5.684;2023-07-31T10:11:30;25.50;76.40
21489;DHT22;10906;45.194;5.684;2023-07-31T10:14:20;25.70;76.20
21489;DHT22;10906;45.194;5.684;2023-07-31T10:17:05;25.80;73.40
21489;DHT22;10906;45.194;5.684;2023-07-31T10:19:51;25.90;73.90
21489;DHT22;10906;45.194;5.684;2023-07-31T10:22:35;25.80;76.50
21489;DHT22;10906;45.194;5.684;2023-07-31T10:25:19;25.90;74.30
21489;DHT22;10906;45.194;5.684;2023-07-31T10:28:03;25.80;72.20
21489;DHT22;10906;45.194;5.684;2023-07-31T10:30:47;25.70;73.40
21489;DHT22;10906;45.194;5.684;2023-07-31T10:33:33;26.00;75.30
21489;DHT22;10906;45.194;5.684;2023-07-31T10:36:18;26.50;76.20
21489;DHT22;10906;45.194;5.684;2023-07-31T10:39:03;26.90;74.70
21489;DHT22;10906;45.194;5.684;2023-07-31T10:41:48;26.90;73.70
21489;DHT22;10906;45.194;5.684;2023-07-31T10:44:32;27.00;69.80
21489;DHT22;10906;45.194;5.684;2023-07-31T10:47:18;27.10;70.70
21489;DHT22;10906;45.194;5.684;2023-07-31T10:53:03;27.20;68.30
21489;DHT22;10906;45.194;5.684;2023-07-31T10:55:47;27.40;68.10
21489;DHT22;10906;45.194;5.684;2023-07-31T10:58:32;27.10;68.80
21489;DHT22;10906;45.194;5.684;2023-07-31T11:01:17;27.10;68.10
21489;DHT22;10906;45.194;5.684;2023-07-31T11:04:09;27.10;68.40
21489;DHT22;10906;45.194;5.684;2023-07-31T11:07:01;26.90;70.30
21489;DHT22;10906;45.194;5.684;2023-07-31T11:09:46;27.20;70.90
21489;DHT22;10906;45.194;5.684;2023-07-31T11:12:31;27.50;69.20
21489;DHT22;10906;45.194;5.684;2023-07-31T11:15:16;27.70;68.20
21489;DHT22;10906;45.194;5.684;2023-07-31T11:18:00;27.80;65.90
21489;DHT22;10906;45.194;5.684;2023-07-31T11:20:47;27.30;65.00
21489;DHT22;10906;45.194;5.684;2023-07-31T11:23:31;27.20;70.00
21489;DHT22;10906;45.194;5.684;2023-07-31T11:26:16;27.30;67.30
21489;DHT22;10906;45.194;5.684;2023-07-31T11:29:01;27.60;70.00
21489;DHT22;10906;45.194;5.684;2023-07-31T11:31:45;27.80;67.70
21489;DHT22;10906;45.194;5.684;2023-07-31T11:34:30;28.10;67.80
21489;DHT22;10906;45.194;5.684;2023-07-31T11:37:14;28.20;63.90
21489;DHT22;10906;45.194;5.684;2023-07-31T11:40:01;27.30;64.80
21489;DHT22;10906;45.194;5.684;2023-07-31T11:42:45;28.40;66.00
21489;DHT22;10906;45.194;5.684;2023-07-31T11:45:30;28.50;68.10
21489;DHT22;10906;45.194;5.684;2023-07-31T11:48:21;28.60;66.20
21489;DHT22;10906;45.194;5.684;2023-07-31T11:51:06;28.70;66.30
21489;DHT22;10906;45.194;5.684;2023-07-31T11:53:52;28.80;64.10
21489;DHT22;10906;45.194;5.684;2023-07-31T11:56:37;28.60;62.40
21489;DHT22;10906;45.194;5.684;2023-07-31T11:59:22;28.40;63.70
21489;DHT22;10906;45.194;5.684;2023-07-31T12:02:06;28.50;67.00
21489;DHT22;10906;45.194;5.684;2023-07-31T12:04:50;28.40;61.30
21489;DHT22;10906;45.194;5.684;2023-07-31T12:10:30;28.10;62.90
21489;DHT22;10906;45.194;5.684;2023-07-31T12:13:24;28.10;63.50
21489;DHT22;10906;45.194;5.684;2023-07-31T12:16:09;28.20;61.70
21489;DHT22;10906;45.194;5.684;2023-07-31T12:18:53;28.40;64.10
21489;DHT22;10906;45.194;5.684;2023-07-31T12:21:38;28.50;64.30
21489;DHT22;10906;45.194;5.684;2023-07-31T12:24:22;28.40;61.30
21489;DHT22;10906;45.194;5.684;2023-07-31T12:27:13;28.40;65.60
21489;DHT22;10906;45.194;5.684;2023-07-31T12:29:57;28.80;68.30
21489;DHT22;10906;45.194;5.684;2023-07-31T12:32:42;29.00;61.30
21489;DHT22;10906;45.194;5.684;2023-07-31T12:35:30;28.80;60.80
21489;DHT22;10906;45.194;5.684;2023-07-31T12:38:18;28.70;62.10
21489;DHT22;10906;45.194;5.684;2023-07-31T12:41:02;28.80;63.00
21489;DHT22;10906;45.194;5.684;2023-07-31T12:43:46;28.90;60.00
21489;DHT22;10906;45.194;5.684;2023-07-31T12:46:30;28.70;59.20
21489;DHT22;10906;45.194;5.684;2023-07-31T12:49:14;28.80;59.60
21489;DHT22;10906;45.194;5.684;2023-07-31T12:51:58;28.70;58.90
21489;DHT22;10906;45.194;5.684;2023-07-31T12:54:42;28.90;61.60
21489;DHT22;10906;45.194;5.684;2023-07-31T12:57:27;29.10;62.20
21489;DHT22;10906;45.194;5.684;2023-07-31T13:00:11;29.10;58.40
21489;DHT22;10906;45.194;5.684;2023-07-31T13:02:56;29.10;60.70
21489;DHT22;10906;45.194;5.684;2023-07-31T13:05:42;29.50;63.80
21489;DHT22;10906;45.194;5.684;2023-07-31T13:08:26;29.70;61.30
21489;DHT22;10906;45.194;5.684;2023-07-31T13:11:10;29.80;60.10
21489;DHT22;10906;45.194;5.684;2023-07-31T13:13:54;30.20;59.70
21489;DHT22;10906;45.194;5.684;2023-07-31T13:16:38;30.00;55.70
21489;DHT22;10906;45.194;5.684;2023-07-31T13:19:23;29.70;58.40
21489;DHT22;10906;45.194;5.684;2023-07-31T13:22:07;29.70;55.60
21489;DHT22;10906;45.194;5.684;2023-07-31T13:24:52;29.60;58.80
21489;DHT22;10906;45.194;5.684;2023-07-31T13:27:36;29.90;58.30
21489;DHT22;10906;45.194;5.684;2023-07-31T13:30:20;30.10;59.20
21489;DHT22;10906;45.194;5.684;2023-07-31T13:33:05;30.30;57.10
21489;DHT22;10906;45.194;5.684;2023-07-31T13:35:49;30.30;55.90
21489;DHT22;10906;45.194;5.684;2023-07-31T13:38:33;30.20;57.70
21489;DHT22;10906;45.194;5.684;2023-07-31T13:41:17;30.40;57.50
21489;DHT22;10906;45.194;5.684;2023-07-31T13:44:02;30.50;54.00
21489;DHT22;10906;45.194;5.684;2023-07-31T13:46:46;30.40;57.00
21489;DHT22;10906;45.194;5.684;2023-07-31T13:49:30;30.30;55.20
21489;DHT22;10906;45.194;5.684;2023-07-31T13:52:14;30.40;56.60
21489;DHT22;10906;45.194;5.684;2023-07-31T13:54:58;30.60;55.00
21489;DHT22;10906;45.194;5.684;2023-07-31T13:57:42;30.50;55.50
21489;DHT22;10906;45.194;5.684;2023-07-31T14:00:27;30.50;57.70
21489;DHT22;10906;45.194;5.684;2023-07-31T14:03:12;30.70;53.30
21489;DHT22;10906;45.194;5.684;2023-07-31T14:05:57;33.60;57.50
21489;DHT22;10906;45.194;5.684;2023-07-31T14:08:41;31.40;54.40
21489;DHT22;10906;45.194;5.684;2023-07-31T14:11:25;31.60;54.70
21489;DHT22;10906;45.194;5.684;2023-07-31T14:14:10;31.90;53.70
21489;DHT22;10906;45.194;5.684;2023-07-31T14:16:54;32.40;51.90
21489;DHT22;10906;45.194;5.684;2023-07-31T14:19:39;32.40;48.60
21489;DHT22;10906;45.194;5.684;2023-07-31T14:22:29;30.60;47.30
21489;DHT22;10906;45.194;5.684;2023-07-31T14:25:14;31.70;50.40
21489;DHT22;10906;45.194;5.684;2023-07-31T14:27:58;31.80;50.30
21489;DHT22;10906;45.194;5.684;2023-07-31T14:30:42;32.20;51.30
21489;DHT22;10906;45.194;5.684;2023-07-31T14:33:27;32.40;53.00
21489;DHT22;10906;45.194;5.684;2023-07-31T14:36:11;32.80;51.00
21489;DHT22;10906;45.194;5.684;2023-07-31T14:38:55;32.90;47.80
21489;DHT22;10906;45.194;5.684;2023-07-31T14:41:39;32.80;46.30
21489;DHT22;10906;45.194;5.684;2023-07-31T14:44:23;32.60;44.70
21489;DHT22;10906;45.194;5.684;2023-07-31T14:47:08;32.30;47.30
21489;DHT22;10906;45.194;5.684;2023-07-31T14:49:52;32.30;46.60
21489;DHT22;10906;45.194;5.684;2023-07-31T14:52:37;32.10;47.70
21489;DHT22;10906;45.194;5.684;2023-07-31T14:55:21;32.50;48.40
21489;DHT22;10906;45.194;5.684;2023-07-31T14:58:08;32.40;44.70
21489;DHT22;10906;45.194;5.684;2023-07-31T15:00:54;32.80;46.30
21489;DHT22;10906;45.194;5.684;2023-07-31T15:03:39;33.50;45.50
21489;DHT22;10906;45.194;5.684;2023-07-31T15:06:23;34.30;43.30
21489;DHT22;10906;45.194;5.684;2023-07-31T15:09:07;34.40;42.40
21489;DHT22;10906;45.194;5.684;2023-07-31T15:11:51;34.90;42.80
21489;DHT22;10906;45.194;5.684;2023-07-31T15:14:35;35.10;42.50
21489;DHT22;10906;45.194;5.684;2023-07-31T15:17:20;35.40;44.00
21489;DHT22;10906;45.194;5.684;2023-07-31T15:20:04;35.60;43.20
21489;DHT22;10906;45.194;5.684;2023-07-31T15:22:50;35.20;42.80
21489;DHT22;10906;45.194;5.684;2023-07-31T15:25:34;35.30;43.30
21489;DHT22;10906;45.194;5.684;2023-07-31T15:28:18;35.00;43.40
21489;DHT22;10906;45.194;5.684;2023-07-31T15:31:02;34.90;44.20
21489;DHT22;10906;45.194;5.684;2023-07-31T15:33:47;34.60;43.50
21489;DHT22;10906;45.194;5.684;2023-07-31T15:36:31;34.30;43.20
21489;DHT22;10906;45.194;5.684;2023-07-31T15:39:16;34.10;44.00
21489;DHT22;10906;45.194;5.684;2023-07-31T15:42:00;34.10;44.30
21489;DHT22;10906;45.194;5.684;2023-07-31T15:44:45;33.70;43.30
21489;DHT22;10906;45.194;5.684;2023-07-31T15:47:29;33.40;44.00
21489;DHT22;10906;45.194;5.684;2023-07-31T15:50:13;33.30;47.00
21489;DHT22;10906;45.194;5.684;2023-07-31T15:52:57;33.80;47.90
21489;DHT22;10906;45.194;5.684;2023-07-31T15:55:42;33.90;43.50
21489;DHT22;10906;45.194;5.684;2023-07-31T15:58:26;33.50;45.70
21489;DHT22;10906;45.194;5.684;2023-07-31T16:01:11;33.50;44.20
21489;DHT22;10906;45.194;5.684;2023-07-31T16:03:55;33.50;47.80
21489;DHT22;10906;45.194;5.684;2023-07-31T16:06:39;33.50;44.60
21489;DHT22;10906;45.194;5.684;2023-07-31T16:09:24;33.20;44.30
21489;DHT22;10906;45.194;5.684;2023-07-31T16:12:08;33.10;45.00
21489;DHT22;10906;45.194;5.684;2023-07-31T16:14:54;33.30;46.40
21489;DHT22;10906;45.194;5.684;2023-07-31T16:17:38;33.70;47.90
21489;DHT22;10906;45.194;5.684;2023-07-31T16:20:22;34.10;47.80
21489;DHT22;10906;45.194;5.684;2023-07-31T16:23:06;33.90;45.10
21489;DHT22;10906;45.194;5.684;2023-07-31T16:25:51;33.90;48.10
21489;DHT22;10906;45.194;5.684;2023-07-31T16:28:35;33.80;46.20
21489;DHT22;10906;45.194;5.684;2023-07-31T16:31:19;33.70;44.00
21489;DHT22;10906;45.194;5.684;2023-07-31T16:34:03;33.70;47.70
21489;DHT22;10906;45.194;5.684;2023-07-31T16:36:47;33.80;45.60
21489;DHT22;10906;45.194;5.684;2023-07-31T16:39:32;33.80;47.80
21489;DHT22;10906;45.194;5.684;2023-07-31T16:42:19;33.90;47.50
21489;DHT22;10906;45.194;5.684;2023-07-31T16:45:03;33.50;45.30
21489;DHT22;10906;45.194;5.684;2023-07-31T16:47:47;32.90;46.30
21489;DHT22;10906;45.194;5.684;2023-07-31T16:50:32;32.30;46.40
21489;DHT22;10906;45.194;5.684;2023-07-31T16:53:16;31.80;47.80
21489;DHT22;10906;45.194;5.684;2023-07-31T16:56:00;31.30;47.40
21489;DHT22;10906;45.194;5.684;2023-07-31T16:58:44;31.00;50.10
21489;DHT22;10906;45.194;5.684;2023-07-31T17:01:28;30.80;49.10
21489;DHT22;10906;45.194;5.684;2023-07-31T17:04:16;30.60;49.70
21489;DHT22;10906;45.194;5.684;2023-07-31T17:07:00;30.40;49.90
21489;DHT22;10906;45.194;5.684;2023-07-31T17:09:44;30.30;50.50
21489;DHT22;10906;45.194;5.684;2023-07-31T17:12:28;30.20;50.70
21489;DHT22;10906;45.194;5.684;2023-07-31T17:15:12;30.00;49.20
21489;DHT22;10906;45.194;5.684;2023-07-31T17:17:56;29.90;51.30
21489;DHT22;10906;45.194;5.684;2023-07-31T17:20:41;29.70;49.50
21489;DHT22;10906;45.194;5.684;2023-07-31T17:23:25;29.60;50.80
21489;DHT22;10906;45.194;5.684;2023-07-31T17:26:09;29.20;50.80
21489;DHT22;10906;45.194;5.684;2023-07-31T17:28:56;29.00;52.00
21489;DHT22;10906;45.194;5.684;2023-07-31T17:31:40;28.80;51.70
21489;DHT22;10906;45.194;5.684;2023-07-31T17:34:25;28.50;51.50
21489;DHT22;10906;45.194;5.684;2023-07-31T17:37:09;28.40;53.60
21489;DHT22;10906;45.194;5.684;2023-07-31T17:39:53;28.30;54.50
21489;DHT22;10906;45.194;5.684;2023-07-31T17:42:37;28.20;53.60
21489;DHT22;10906;45.194;5.684;2023-07-31T17:45:21;28.10;55.60
21489;DHT22;10906;45.194;5.684;2023-07-31T17:48:06;28.10;55.50
21489;DHT22;10906;45.194;5.684;2023-07-31T17:50:52;28.00;54.50
21489;DHT22;10906;45.194;5.684;2023-07-31T17:53:37;27.90;53.90
21489;DHT22;10906;45.194;5.684;2023-07-31T17:56:21;27.80;56.50
21489;DHT22;10906;45.194;5.684;2023-07-31T17:59:05;27.90;59.20
21489;DHT22;10906;45.194;5.684;2023-07-31T18:01:50;27.80;58.30
21489;DHT22;10906;45.194;5.684;2023-07-31T18:04:34;27.80;58.80
21489;DHT22;10906;45.194;5.684;2023-07-31T18:07:22;27.70;59.20
21489;DHT22;10906;45.194;5.684;2023-07-31T18:10:06;27.50;56.10
21489;DHT22;10906;45.194;5.684;2023-07-31T18:12:54;27.50;55.10
21489;DHT22;10906;45.194;5.684;2023-07-31T18:15:43;27.40;58.30
21489;DHT22;10906;45.194;5.684;2023-07-31T18:18:27;27.40;59.20
21489;DHT22;10906;45.194;5.684;2023-07-31T18:21:11;27.40;60.50
21489;DHT22;10906;45.194;5.684;2023-07-31T18:23:56;27.20;61.10
21489;DHT22;10906;45.194;5.684;2023-07-31T18:26:40;27.10;60.20
21489;DHT22;10906;45.194;5.684;2023-07-31T18:29:24;26.90;58.20
21489;DHT22;10906;45.194;5.684;2023-07-31T18:32:08;26.80;56.60
21489;DHT22;10906;45.194;5.684;2023-07-31T18:34:52;26.80;59.50
21489;DHT22;10906;45.194;5.684;2023-07-31T18:37:36;26.80;61.00
21489;DHT22;10906;45.194;5.684;2023-07-31T18:40:21;26.70;62.70
21489;DHT22;10906;45.194;5.684;2023-07-31T18:43:05;26.70;62.30
21489;DHT22;10906;45.194;5.684;2023-07-31T18:45:49;26.70;62.90
21489;DHT22;10906;45.194;5.684;2023-07-31T18:48:33;26.50;61.70
21489;DHT22;10906;45.194;5.684;2023-07-31T18:51:17;26.50;64.10
21489;DHT22;10906;45.194;5.684;2023-07-31T18:54:01;26.40;64.60
21489;DHT22;10906;45.194;5.684;2023-07-31T18:56:46;26.30;64.90
21489;DHT22;10906;45.194;5.684;2023-07-31T18:59:30;26.20;61.30
21489;DHT22;10906;45.194;5.684;2023-07-31T19:02:14;26.10;63.40
21489;DHT22;10906;45.194;5.684;2023-07-31T19:04:58;26.10;63.90
21489;DHT22;10906;45.194;5.684;2023-07-31T19:07:42;26.00;62.40
21489;DHT22;10906;45.194;5.684;2023-07-31T19:10:26;25.90;64.50
21489;DHT22;10906;45.194;5.684;2023-07-31T19:13:10;25.80;65.80
21489;DHT22;10906;45.194;5.684;2023-07-31T19:15:54;25.70;66.30
21489;DHT22;10906;45.194;5.684;2023-07-31T19:18:38;25.70;66.50
21489;DHT22;10906;45.194;5.684;2023-07-31T19:21:23;25.60;64.60
21489;DHT22;10906;45.194;5.684;2023-07-31T19:24:07;25.40;63.80
21489;DHT22;10906;45.194;5.684;2023-07-31T19:26:51;25.40;65.50
21489;DHT22;10906;45.194;5.684;2023-07-31T19:29:36;25.30;65.10
21489;DHT22;10906;45.194;5.684;2023-07-31T19:32:20;25.30;66.70
21489;DHT22;10906;45.194;5.684;2023-07-31T19:35:04;25.20;65.80
21489;DHT22;10906;45.194;5.684;2023-07-31T19:37:49;25.10;65.90
21489;DHT22;10906;45.194;5.684;2023-07-31T19:40:33;25.10;66.20
21489;DHT22;10906;45.194;5.684;2023-07-31T19:43:17;25.00;68.00
21489;DHT22;10906;45.194;5.684;2023-07-31T19:46:01;24.80;67.50
21489;DHT22;10906;45.194;5.684;2023-07-31T19:48:45;24.80;67.70
21489;DHT22;10906;45.194;5.684;2023-07-31T19:51:29;24.70;68.30
21489;DHT22;10906;45.194;5.684;2023-07-31T19:54:15;24.60;68.30
21489;DHT22;10906;45.194;5.684;2023-07-31T19:57:00;24.60;68.20
21489;DHT22;10906;45.194;5.684;2023-07-31T19:59:44;24.60;69.20
21489;DHT22;10906;45.194;5.684;2023-07-31T20:02:28;24.60;69.30
21489;DHT22;10906;45.194;5.684;2023-07-31T20:05:13;24.60;69.60
21489;DHT22;10906;45.194;5.684;2023-07-31T20:07:57;24.70;69.60
21489;DHT22;10906;45.194;5.684;2023-07-31T20:10:42;24.60;69.00
21489;DHT22;10906;45.194;5.684;2023-07-31T20:13:26;24.60;69.00
21489;DHT22;10906;45.194;5.684;2023-07-31T20:16:10;24.50;69.30
21489;DHT22;10906;45.194;5.684;2023-07-31T20:18:54;24.30;70.40
21489;DHT22;10906;45.194;5.684;2023-07-31T20:21:38;24.30;70.10
21489;DHT22;10906;45.194;5.684;2023-07-31T20:24:23;24.20;69.50
21489;DHT22;10906;45.194;5.684;2023-07-31T20:27:07;24.10;70.40
21489;DHT22;10906;45.194;5.684;2023-07-31T20:29:51;24.10;71.00
21489;DHT22;10906;45.194;5.684;2023-07-31T20:32:36;23.90;70.60
21489;DHT22;10906;45.194;5.684;2023-07-31T20:35:20;23.80;70.20
21489;DHT22;10906;45.194;5.684;2023-07-31T20:38:04;23.70;70.20
21489;DHT22;10906;45.194;5.684;2023-07-31T20:40:51;23.60;70.10
21489;DHT22;10906;45.194;5.684;2023-07-31T20:43:36;23.60;70.90
21489;DHT22;10906;45.194;5.684;2023-07-31T20:46:20;23.50;71.20
21489;DHT22;10906;45.194;5.684;2023-07-31T20:49:04;23.50;72.10
21489;DHT22;10906;45.194;5.684;2023-07-31T20:51:49;23.40;72.00
21489;DHT22;10906;45.194;5.684;2023-07-31T20:54:33;23.40;71.90
21489;DHT22;10906;45.194;5.684;2023-07-31T20:57:18;23.40;72.80
21489;DHT22;10906;45.194;5.684;2023-07-31T21:00:03;23.40;73.50
21489;DHT22;10906;45.194;5.684;2023-07-31T21:02:48;23.40;72.60
21489;DHT22;10906;45.194;5.684;2023-07-31T21:05:32;23.40;73.70
21489;DHT22;10906;45.194;5.684;2023-07-31T21:08:16;23.40;73.80
21489;DHT22;10906;45.194;5.684;2023-07-31T21:11:00;23.20;72.70
21489;DHT22;10906;45.194;5.684;2023-07-31T21:13:45;23.20;73.30
21489;DHT22;10906;45.194;5.684;2023-07-31T21:16:31;23.10;73.30
21489;DHT22;10906;45.194;5.684;2023-07-31T21:19:16;23.00;73.00
21489;DHT22;10906;45.194;5.684;2023-07-31T21:22:01;23.00;73.90
21489;DHT22;10906;45.194;5.684;2023-07-31T21:24:48;23.00;73.30
21489;DHT22;10906;45.194;5.684;2023-07-31T21:27:32;23.00;73.30
21489;DHT22;10906;45.194;5.684;2023-07-31T21:30:16;23.00;72.90
21489;DHT22;10906;45.194;5.684;2023-07-31T21:33:00;25.00;75.80
21489;DHT22;10906;45.194;5.684;2023-07-31T21:35:45;22.90;74.10
21489;DHT22;10906;45.194;5.684;2023-07-31T21:38:29;22.80;74.10
21489;DHT22;10906;45.194;5.684;2023-07-31T21:41:13;22.70;74.00
21489;DHT22;10906;45.194;5.684;2023-07-31T21:43:57;22.60;74.80
21489;DHT22;10906;45.194;5.684;2023-07-31T21:46:41;22.60;75.30
21489;DHT22;10906;45.194;5.684;2023-07-31T21:49:26;22.60;75.20
21489;DHT22;10906;45.194;5.684;2023-07-31T21:52:10;22.50;75.50
21489;DHT22;10906;45.194;5.684;2023-07-31T21:54:54;22.40;76.60
21489;DHT22;10906;45.194;5.684;2023-07-31T21:57:38;22.50;75.80
